Terminal Aerodrome Forecast
Issued by NWS

Home | Current Version | Previous Version | Text Only | Print | Product List | Glossary On
Versions: 1 2 3 4 5 6 7 8 9 10 11 12 13 14 15 16 17 18 19 20 21 22
000
FTUS44 KEPZ 011700
TAFLRU
TAF
KLRU 011737Z 0118/0218 04005KT P6SM SCT050
     FM020000 VRB04KT P6SM SKC
     FM021000 13003KT 3SM BR SKC
     FM021200 VRB03KT 1SM BR SCT005
      TEMPO 0212/0216 1/4SM FG VV002
     FM021700 VRB05KT P6SM FEW020=

USA.gov is the U.S. government's official web portal to all federal, state and local government web resources and services.